Latest Coastal Weather Observations for Horn Island

IDQ60701

Issued at 12:51 am EST Thursday 26 May 2016 (issued every 10 minutes, with the page automatically refreshed every 10 minutes)

About coastal observations | Map of coastal stations | Coastal observations for QLD | Marine services | Other Formats
Station Details ID: 027058 Name: HORN ISLAND Lat: -10.58 Lon: 142.29 Height: 4.0 m
Data from the previous 72 hours. | See also: Recent months at Horn Island
Date/Time
EST
Temp

°C
Wind Pressure Rain
since 9am
mm
Weather Cloud Vis
km
Sea
Height
m
Swell
Dir
 
Speed
knots
Gust
knots
hPa Trend Height
m
Period
s
Dir
26/12:30am 27.5 ESE 8 12 1012.4 - 0.0 - Partly cloudy 10 - - - -
26/12:12am 27.4 ESE 8 11 1012.4 - 0.0 - Partly cloudy 10 - - - -
26/12:00am 27.5 ESE 9 14 1012.4 - 0.0 - Partly cloudy 10 - - - -
 
Date/Time
EST
Temp

°C
Wind Pressure Rain
since 9am
mm
Weather Cloud Vis
km
Sea
Height
m
Swell
Dir
 
Speed
knots
Gust
knots
hPa Trend Height
m
Period
s
Dir
25/11:30pm 27.4 ESE 9 11 1012.5 - 0.0 - Partly cloudy 10 - - - -
25/11:00pm 27.3 ESE 8 12 1012.6 - 0.0 - Partly cloudy 10 - - - -
25/10:45pm 27.4 ESE 8 11 1012.6 - 0.0 - Partly cloudy 10 - - - -
25/10:30pm 27.3 ESE 9 12 1012.7 - 0.0 - Partly cloudy 10 - - - -
25/10:00pm 27.4 ESE 8 12 1012.6 - 0.0 - Partly cloudy 10 - - - -
25/09:45pm 27.5 ESE 9 14 1012.5 - 0.0 - Partly cloudy 10 - - - -
25/09:30pm 27.5 ESE 10 14 1012.4 - 0.0 - Partly cloudy 10 - - - -
25/09:00pm 27.6 ESE 11 16 1012.2 - 0.0 - Cloudy 10 - - - -
25/08:30pm 27.6 ESE 10 13 1012.1 - 0.0 - Partly cloudy 10 - - - -
25/08:00pm 27.5 ESE 10 13 1011.8 - 0.0 - Partly cloudy 10 - - - -
25/07:30pm 27.5 ESE 9 12 1011.5 - 0.0 - - 10 - - - -
25/07:00pm 27.5 ESE 9 12 1011.2 - 0.0 - Partly cloudy 10 - - - -
25/06:30pm 27.7 E 9 13 1011.2 - 0.0 - - 10 - - - -
25/06:00pm 27.9 E 9 15 1010.9 - 0.0 - - 10 - - - -
25/05:30pm 28.3 E 11 15 1010.3 - 0.0 - - 10 - - - -
25/05:00pm 28.6 ESE 12 16 1010.1 - 0.0 - - 10 - - - -
25/04:30pm 29.1 ESE 11 15 1010.1 - 0.0 - - 10 - - - -
25/04:00pm 29.4 ESE 12 18 1010.0 - 0.0 - - 10 - - - -
25/03:30pm 29.2 E 14 17 1010.2 - 0.0 - - 10 - - - -
25/03:00pm 29.2 ESE 13 18 1010.4 - 0.0 - Mostly clear 10 - - - -
25/02:30pm 29.5 E 13 17 1010.7 - 0.0 - Partly cloudy 10 - - - -
25/02:00pm 29.5 E 15 19 1011.0 - 0.0 - Partly cloudy 10 - - - -
25/01:30pm 29.5 E 13 17 1011.4 - 0.0 - Partly cloudy 10 - - - -
25/01:00pm 29.8 ESE 13 18 1011.9 - 0.0 - - 10 - - - -
25/12:30pm 29.7 E 15 19 1012.4 - 0.0 - Partly cloudy 10 - - - -
25/12:00pm 29.9 E 13 17 1012.7 - 0.0 - Mostly cloudy 10 - - - -
25/11:30am 28.9 E 14 18 1013.0 - 0.0 - Partly cloudy 10 - - - -
25/11:00am 29.5 ESE 13 16 1013.4 - 0.0 - Partly cloudy 10 - - - -
25/10:32am 29.2 E 12 18 1013.6 - 0.0 - Partly cloudy 10 - - - -
25/10:30am 29.2 E 12 18 1013.6 - 0.0 - Partly cloudy 10 - - - -
25/10:00am 28.9 E 13 18 1013.5 - 0.0 - Partly cloudy 10 - - - -
25/09:30am 28.4 E 12 18 1013.5 - 0.0 - Partly cloudy 10 - - - -
25/09:00am 27.5 ESE 11 15 1013.4 - 0.0 - Partly cloudy 10 - - - -
25/08:56am 27.4 ESE 12 15 1013.3 - 0.0 - Partly cloudy 10 - - - -
25/08:30am 27.4 ESE 10 16 1013.1 - 0.0 - Partly cloudy 10 - - - -
25/08:00am 26.9 ESE 11 16 1012.6 - 0.0 - Partly cloudy 10 - - - -
25/07:30am 26.6 ESE 8 12 1012.3 - 0.0 - Partly cloudy 10 - - - -
25/07:00am 26.3 ESE 6 8 1011.9 - 0.0 - Partly cloudy 10 - - - -
25/06:30am 26.3 ESE 7 10 1011.6 - 0.0 - Partly cloudy 10 - - - -
25/06:00am 26.6 SSE 8 11 1011.5 - 0.0 - Cloudy 10 - - - -
25/05:51am 26.6 SSE 7 9 1011.5 - 0.0 - Partly cloudy 10 - - - -
25/05:37am 26.8 SE 8 12 1011.4 - 0.0 - Partly cloudy 10 - - - -
25/05:30am 26.8 SE 8 12 1011.2 - 0.0 - Partly cloudy 10 - - - -
25/05:00am 26.8 SE 8 11 1011.3 - 0.0 - Partly cloudy 10 - - - -
25/04:40am 26.8 ESE 8 10 1011.0 - 0.0 - Partly cloudy 10 - - - -
25/04:30am 26.8 ESE 7 10 1010.9 - 0.0 - Partly cloudy 10 - - - -
25/04:00am 26.8 ESE 6 8 1010.9 - 0.0 - Partly cloudy 10 - - - -
25/03:42am 26.7 ESE 6 7 1011.1 - 0.0 - Partly cloudy 10 - - - -
25/03:30am 26.7 SE 6 8 1011.2 - 0.0 - Partly cloudy 10 - - - -
25/03:00am 26.6 ESE 7 9 1011.2 - 0.0 - - 10 - - - -
25/02:30am 26.4 SE 5 7 1011.7 - 0.0 - Partly cloudy 10 - - - -
25/02:21am 26.5 ESE 5 6 1011.7 - 0.0 - Partly cloudy 10 - - - -
25/02:00am 26.7 ESE 4 5 1012.0 - 0.0 - Partly cloudy 10 - - - -
25/01:30am 26.8 SE 6 8 1012.4 - 0.0 - Partly cloudy 10 - - - -
25/01:18am 26.8 SE 6 9 1012.4 - 0.0 - Partly cloudy 10 - - - -
25/01:00am 26.8 SE 5 8 1012.5 - 0.0 - Partly cloudy 10 - - - -
25/12:30am 26.8 SSE 5 7 1012.6 - 0.0 - Partly cloudy 10 - - - -
25/12:00am 26.9 SE 7 10 1012.9 - 0.0 - Cloudy 10 - - - -
 
Date/Time
EST
Temp

°C
Wind Pressure Rain
since 9am
mm
Weather Cloud Vis
km
Sea
Height
m
Swell
Dir
 
Speed
knots
Gust
knots
hPa Trend Height
m
Period
s
Dir
24/11:30pm 27.0 SSE 8 11 1013.3 - 0.0 - Partly cloudy 10 - - - -
24/11:00pm 26.9 SSE 6 9 1013.2 - 0.0 - Partly cloudy 10 - - - -
24/10:30pm 26.9 SSE 6 9 1012.9 - 0.0 - Partly cloudy 10 - - - -
24/10:00pm 26.9 SE 5 7 1013.1 - 0.0 - Partly cloudy 10 - - - -
24/09:30pm 27.1 SE 7 10 1013.0 - 0.0 - Partly cloudy 10 - - - -
24/09:06pm 27.2 ESE 9 13 1012.6 - 0.0 - Partly cloudy 10 - - - -
24/09:00pm 27.2 SE 9 13 1012.6 - 0.0 - Mostly clear 10 - - - -
24/08:35pm 27.3 SE 8 11 1012.5 - 0.0 - Partly cloudy 10 - - - -
24/08:30pm 27.3 SE 8 11 1012.5 - 0.0 - Partly cloudy 10 - - - -
24/08:00pm 27.4 SE 9 12 1012.2 - 0.0 - - 10 - - - -
24/07:30pm 27.6 SE 9 12 1011.6 - 0.0 - - 10 - - - -
24/07:00pm 27.7 ESE 10 14 1011.1 - 0.0 - - 10 - - - -
24/06:30pm 27.8 ESE 10 13 1010.7 - 0.0 - Partly cloudy 10 - - - -
24/06:00pm 28.0 ESE 12 15 1010.5 - 0.0 - Cloudy 10 - - - -
24/05:30pm 28.7 ESE 10 14 1010.3 - 0.0 - Cloudy 10 - - - -
24/05:00pm 29.0 E 11 15 1010.2 - 0.0 - Partly cloudy 10 - - - -
24/04:30pm 29.2 ESE 12 17 1009.9 - 0.0 - - 10 - - - -
24/04:00pm 28.9 ESE 13 16 1009.9 - 0.0 - - 10 - - - -
24/03:30pm 28.7 ESE 13 17 1009.9 - 0.0 - Partly cloudy 10 - - - -
24/03:00pm 29.1 ESE 15 20 1010.0 - 0.0 - Mostly clear 10 - - - -
24/02:30pm 29.4 ESE 13 17 1009.9 - 0.0 - Partly cloudy 10 - - - -
24/02:00pm 29.1 ESE 14 18 1010.3 - 0.0 - Partly cloudy 10 - - - -
24/01:30pm 28.4 ESE 12 16 1010.9 - 0.0 - - 10 - - - -
24/01:00pm 28.9 ESE 11 13 1011.7 - 0.0 - Partly cloudy 10 - - - -
24/12:30pm 29.1 E 13 18 1012.3 - 0.0 - Partly cloudy 10 - - - -
24/12:01pm 28.3 E 9 12 1012.7 - 0.0 - Partly cloudy 10 - - - -
24/12:00pm 28.3 E 9 12 1012.7 - 0.0 - Cloudy 10 - - - -
24/11:49am 27.9 E 11 15 1012.9 - 0.0 - Partly cloudy 5 - - - -
24/11:30am 29.3 E 11 15 1013.0 - 0.0 - Partly cloudy 10 - - - -
24/11:00am 28.6 E 12 17 1013.6 - 0.0 - Partly cloudy 10 - - - -
24/10:30am 29.4 E 13 19 1013.7 - 0.0 - Partly cloudy 10 - - - -
24/10:00am 28.7 E 13 16 1014.0 - 0.0 - Partly cloudy 10 - - - -
24/09:30am 28.9 E 13 18 1013.7 - 0.0 - Partly cloudy 10 - - - -
24/09:00am 28.2 E 14 18 1013.2 - 12.2 - Mostly cloudy 10 - - - -
24/08:48am 28.3 E 11 16 1013.1 - 12.2 - Partly cloudy 10 - - - -
24/08:38am 27.9 E 10 15 1013.0 - 12.2 - Partly cloudy 10 - - - -
24/08:30am 27.8 E 11 18 1012.9 - 12.2 - Partly cloudy 10 - - - -
24/08:00am 28.1 E 12 15 1012.7 - 12.2 - Partly cloudy 10 - - - -
24/07:30am 27.1 E 11 18 1012.7 - 12.2 - Partly cloudy 10 - - - -
24/07:00am 26.8 E 11 15 1012.3 - 12.2 - Partly cloudy 10 - - - -
24/06:30am 26.5 E 11 15 1012.1 - 12.2 - - 10 - - - -
24/06:00am 26.2 E 10 14 1011.7 - 12.2 - - 10 - - - -
24/05:42am 26.2 E 9 13 1011.7 - 12.2 - Partly cloudy 10 - - - -
24/05:30am 26.2 E 13 17 1011.4 - 12.2 - Partly cloudy 10 - - - -
24/05:28am 26.2 E 13 17 1011.4 - 12.2 - Partly cloudy 10 - - - -
24/05:08am 26.5 E 12 16 1011.3 - 11.6 - Partly cloudy 5 - - - -
24/05:00am 27.3 E 13 18 1011.3 - 11.4 - Partly cloudy 10 - - - -
24/04:30am 26.9 ESE 14 18 1010.9 - 11.4 - Partly cloudy 10 - - - -
24/04:00am 26.8 ESE 12 16 1010.6 - 11.4 - Partly cloudy 10 - - - -
24/03:30am 26.8 ESE 11 16 1010.7 - 11.4 - Partly cloudy 10 - - - -
24/03:00am 26.9 ESE 11 15 1010.9 - 11.4 - Partly cloudy 10 - - - -
24/02:34am 26.8 ESE 9 12 1011.1 - 11.4 - Partly cloudy 10 - - - -
24/02:30am 26.8 ESE 9 12 1011.2 - 11.4 - Partly cloudy 10 - - - -
24/02:00am 26.9 ESE 8 11 1011.8 - 11.4 - Partly cloudy 10 - - - -
24/01:30am 26.5 ESE 7 10 1012.1 - 11.4 - - 10 - - - -
24/01:00am 26.4 ESE 6 9 1012.2 - 11.4 - - 10 - - - -
24/12:30am 26.4 ESE 7 9 1012.2 - 11.4 - Partly cloudy 10 - - - -
24/12:00am 26.4 ESE 8 9 1012.4 - 11.4 - - 10 - - - -
 
Date/Time
EST
Temp

°C
Wind Pressure Rain
since 9am
mm
Weather Cloud Vis
km
Sea
Height
m
Swell
Dir
 
Speed
knots
Gust
knots
hPa Trend Height
m
Period
s
Dir
23/11:30pm 26.2 SE 5 6 1012.5 - 11.4 - - 10 - - - -
23/11:00pm 26.2 SE 5 7 1012.5 - 11.4 - - 10 - - - -
23/10:30pm 26.3 SE 6 7 1012.5 - 11.4 - Partly cloudy 10 - - - -
23/10:00pm 26.4 SSE 6 8 1012.5 - 11.4 - Partly cloudy 10 - - - -
23/09:30pm 26.7 SE 7 11 1012.5 - 11.4 - Cloudy 10 - - - -
23/09:00pm 26.9 SE 8 11 1012.3 - 11.4 - Partly cloudy 10 - - - -
23/08:55pm 26.8 SSE 8 11 1012.2 - 11.4 - Partly cloudy 10 - - - -
23/08:30pm 26.9 SE 7 9 1011.8 - 11.4 - - 10 - - - -
23/08:00pm 27.2 SE 6 9 1011.6 - 11.4 - - 10 - - - -
23/07:30pm 27.5 SSE 6 7 1011.1 - 11.4 - Partly cloudy 10 - - - -
23/07:00pm 27.6 SE 3 4 1010.8 - 11.4 - Partly cloudy 10 - - - -
23/06:30pm 27.9 SSE 4 6 1010.2 - 11.4 - - 10 - - - -
23/06:00pm 28.5 SE 4 7 1010.2 - 11.4 - - 10 - - - -
23/05:30pm 29.2 ESE 7 8 1009.9 - 11.4 - - 10 - - - -
23/05:00pm 30.1 S 5 8 1009.7 - 11.4 - - 10 - - - -
23/04:30pm 30.0 ESE 6 8 1009.1 - 11.4 - - 10 - - - -
23/04:00pm 29.8 ESE 6 9 1008.9 - 11.4 - - 10 - - - -
23/03:30pm 29.9 E 4 7 1008.9 - 11.4 - - 10 - - - -
23/03:00pm 29.3 E 6 8 1009.0 - 11.4 - - 10 - - - -
23/02:30pm 28.9 ESE 6 9 1009.1 - 11.4 - - 10 - - - -
23/02:00pm 28.2 SE 9 11 1009.6 - 11.4 - - 10 - - - -
23/01:30pm 27.5 SSE 10 13 1010.2 - 11.2 - Partly cloudy 10 - - - -
23/01:00pm 27.6 S 6 9 1010.6 - 11.2 - Partly cloudy 10 - - - -
23/12:30pm 26.0 SSW 8 12 1011.7 - 11.2 - Partly cloudy 9 - - - -
23/12:28pm 26.1 SSW 9 13 1011.8 - 11.2 - Partly cloudy 8 - - - -
23/12:00pm 25.2 SW 12 17 1012.3 - 3.6 - Cloudy 4 - - - -
23/11:59am 25.5 SW 12 17 1012.3 - 2.8 - Partly cloudy 5 - - - -
23/11:56am 26.1 SW 13 17 1012.3 - 0.2 - Partly cloudy 10 - - - -
23/11:30am 30.0 NNW 6 8 1011.9 - 0.2 - Partly cloudy 10 - - - -
23/11:00am 29.5 NW 4 7 1012.4 - 0.0 - Partly cloudy 10 - - - -
23/10:54am 29.6 N 4 6 1012.4 - 0.0 - Partly cloudy 10 - - - -
23/10:30am 29.7 NNE 4 6 1012.4 - 0.0 - Partly cloudy 10 - - - -
23/10:13am 29.1 N 5 6 1012.4 - 0.0 - Partly cloudy 10 - - - -
23/10:00am 28.6 NNE 5 7 1012.3 - 0.0 - Partly cloudy 10 - - - -
23/09:52am 28.9 NE 4 5 1012.4 - 0.0 - Partly cloudy 10 - - - -
23/09:38am 28.7 E 4 6 1012.4 - 0.0 - Partly cloudy 8 - - - -
23/09:30am 29.4 E 5 7 1012.4 - 0.0 - Partly cloudy 9 - - - -
23/09:00am 28.9 E 5 7 1012.3 - 0.4 - Cloudy 10 - - - -
23/08:30am 28.5 NE 5 6 1012.1 - 0.4 - Partly cloudy 10 - - - -
23/08:20am 28.4 ENE 5 7 1012.1 - 0.4 - Partly cloudy 10 - - - -
23/08:00am 28.1 ENE 4 6 1011.9 - 0.4 - Partly cloudy 10 - - - -
23/07:30am 27.4 ENE 4 4 1011.7 - 0.4 - - 10 - - - -
23/07:09am 27.1 NE 4 5 1011.3 - 0.4 - Partly cloudy 8 - - - -
23/07:00am 27.2 NE 3 4 1011.3 - 0.4 - Partly cloudy 7 - - - -
23/06:45am 27.2 CALM 0 0 1011.4 - 0.4 - Partly cloudy 8 - - - -
23/06:30am 27.2 NE 2 4 1011.1 - 0.4 - Partly cloudy 9 - - - -
23/06:00am 27.2 ENE 4 5 1010.7 - 0.4 - - 9 - - - -
23/05:30am 27.3 ENE 4 7 1010.5 - 0.4 - Partly cloudy 10 - - - -
23/05:25am 27.2 ENE 5 7 1010.5 - 0.4 - Partly cloudy 10 - - - -
23/05:04am 27.2 ENE 5 6 1010.4 - 0.4 - Partly cloudy 9 - - - -
23/05:00am 27.3 ENE 5 6 1010.5 - 0.4 - Partly cloudy 10 - - - -
23/04:30am 27.4 ENE 6 9 1010.1 - 0.4 - Partly cloudy 10 - - - -
23/04:00am 27.3 ENE 6 7 1010.0 - 0.4 - Partly cloudy 9 - - - -
23/03:30am 27.4 ENE 6 9 1010.3 - 0.4 - Partly cloudy 9 - - - -
23/03:24am 27.4 ENE 6 9 1010.3 - 0.4 - Partly cloudy 9 - - - -
23/03:00am 27.4 ENE 5 8 1010.5 - 0.4 - Cloudy 9 - - - -
23/02:33am 27.4 E 5 8 1010.7 - 0.4 - Partly cloudy 9 - - - -
23/02:30am 27.4 E 6 9 1010.6 - 0.4 - Partly cloudy 9 - - - -
23/02:19am 27.3 E 7 9 1010.5 - 0.4 - Partly cloudy 9 - - - -
23/02:00am 27.3 E 6 9 1010.7 - 0.4 - Partly cloudy 9 - - - -
23/01:56am 27.3 E 7 9 1010.6 - 0.4 - Partly cloudy 9 - - - -
23/01:30am 27.2 E 6 10 1010.8 - 0.4 - Partly cloudy 9 - - - -
23/01:00am 27.4 E 5 7 1010.9 - 0.4 - Partly cloudy 7 - - - -

Other Formats:

Comma delimited format used in spreadsheet applications
http://www.bom.gov.au/fwo/IDQ60701/IDQ60701.94174.axf

JavaScript Object Notation format (JSON) in row-major order
http://www.bom.gov.au/fwo/IDQ60701/IDQ60701.94174.json